Terminal Aerodrome Forecast
Issued by NWS

Home | Current Version | Previous Version | Text Only | Print | Product List | Glossary On
Versions: 1 2 3 4 5 6 7 8 9 10 11 12 13 14 15 16 17 18 19 20 21 22 23 24 25 26 27
000
FTUS43 KILX 191343 AAB
TAFBMI
TAF AMD
KBMI 191343Z 1914/2012 16015KT 3SM -RA BR VCTS SCT003 OVC010CB
      TEMPO 1914/1916 1SM SHRA BR OVC003
     FM191600 20017G25KT 4SM -RA BR OVC008
      TEMPO 1916/1918 1SM SHRA BR OVC005
     FM191800 20020G30KT 5SM -SHRA BR VCTS OVC012CB
     FM200200 20018G28KT 2SM SHRA BR VCTS OVC006CB WS018/21050KT=

USA.gov is the U.S. government's official web portal to all federal, state and local government web resources and services.